Time;durP1;ratioP1;P1;durP2;ratioP2;P2;SDS_P1;SDS_P2;PMS_P1;PMS_P2;Temp;Humidity;BMP_temperature;BMP_pressure;BME280_temperature;BME280_humidity;BME280_pressure;Samples;Min_cycle;Max_cycle;Signal;HPM_P1;HPM_P2
2022/03/09 00:01:56;;;;;;;12.32;8.02;;;;;;;3.30;47.69;102063.91;5061359;28;20150;-82
2022/03/09 00:04:22;;;;;;;13.55;7.25;;;;;;;3.26;47.72;102056.91;5059604;28;20024;-82
2022/03/09 00:06:47;;;;;;;13.52;7.47;;;;;;;3.23;48.47;102057.78;5061417;28;20081;-82
2022/03/09 00:09:13;;;;;;;13.75;7.78;;;;;;;3.26;48.10;102069.97;5063697;28;20016;-82
2022/03/09 00:11:39;;;;;;;13.43;7.13;;;;;;;3.26;48.02;102072.59;5063508;28;20062;-82
2022/03/09 00:14:05;;;;;;;16.67;8.50;;;;;;;3.23;47.99;102077.81;5065385;28;20067;-82
2022/03/09 00:16:30;;;;;;;14.35;7.53;;;;;;;3.16;48.21;102071.63;5064927;28;20387;-82
2022/03/09 00:18:55;;;;;;;13.15;7.05;;;;;;;3.07;48.65;102079.34;5065194;28;20472;-82
2022/03/09 00:21:21;;;;;;;13.00;7.18;;;;;;;2.98;49.06;102074.91;5064559;28;20200;-82
2022/03/09 00:23:46;;;;;;;13.70;7.38;;;;;;;3.01;48.49;102082.78;5065362;28;20761;-82
2022/03/09 00:26:11;;;;;;;17.42;8.68;;;;;;;2.95;48.68;102074.91;5064774;28;20044;-82
2022/03/09 00:28:37;;;;;;;12.80;6.72;;;;;;;3.01;48.73;102077.56;5066054;28;20426;-82
2022/03/09 00:31:03;;;;;;;13.70;7.47;;;;;;;3.04;48.47;102082.84;5065132;28;20029;-82
2022/03/09 00:33:28;;;;;;;11.93;6.93;;;;;;;3.01;48.63;102076.69;5063035;28;20040;-82
2022/03/09 00:35:54;;;;;;;12.73;8.57;;;;;;;2.97;48.34;102074.91;5065939;28;20583;-82
2022/03/09 00:38:19;;;;;;;16.08;9.23;;;;;;;2.96;47.97;102074.03;5066065;28;20036;-82
2022/03/09 00:40:47;;;;;;;25.27;10.18;;;;;;;2.98;47.97;102081.88;5064790;28;20029;-81
2022/03/09 00:43:13;;;;;;;14.43;7.72;;;;;;;2.97;48.17;102083.63;5062105;28;20032;-82
2022/03/09 00:45:38;;;;;;;14.07;6.85;;;;;;;2.91;48.42;102067.00;5065084;28;20110;-82
2022/03/09 00:48:04;;;;;;;19.17;8.27;;;;;;;2.93;48.07;102087.03;5065096;28;20121;-82
2022/03/09 00:50:29;;;;;;;16.23;6.32;;;;;;;2.87;47.90;102065.22;5063051;28;20032;-82
2022/03/09 00:52:54;;;;;;;13.52;7.20;;;;;;;2.85;48.69;102075.66;5065476;28;20035;-82
2022/03/09 00:55:19;;;;;;;11.07;7.68;;;;;;;2.79;47.95;102065.13;5065596;28;20448;-82
2022/03/09 00:57:45;;;;;;;11.18;6.05;;;;;;;2.80;48.01;102065.16;5063427;28;20035;-81
2022/03/09 01:00:11;;;;;;;15.48;7.25;;;;;;;2.87;48.10;102073.06;5064293;28;20117;-82
2022/03/09 01:02:43;;;;;;;14.00;7.40;;;;;;;2.87;47.96;102079.16;5063388;28;20032;-82
2022/03/09 01:05:09;;;;;;;14.48;6.50;;;;;;;2.86;47.90;102076.53;5065202;28;20040;-82
2022/03/09 01:07:35;;;;;;;12.52;6.78;;;;;;;2.87;48.07;102080.88;5064868;28;20024;-82
2022/03/09 01:10:00;;;;;;;12.05;6.47;;;;;;;2.83;48.29;102077.34;5063922;28;20138;-82
2022/03/09 01:12:26;;;;;;;11.75;7.15;;;;;;;2.81;48.03;102072.13;5063071;28;20023;-82
2022/03/09 01:14:51;;;;;;;13.57;7.03;;;;;;;2.84;47.98;102084.31;5065464;28;20028;-82
2022/03/09 01:17:16;;;;;;;12.35;6.75;;;;;;;2.86;47.65;102079.16;5064425;28;20395;-82
2022/03/09 01:19:42;;;;;;;11.95;6.95;;;;;;;2.88;48.20;102078.28;5063572;28;20070;-81
2022/03/09 01:22:07;;;;;;;14.07;7.85;;;;;;;2.87;48.21;102078.28;5065387;28;20129;-82
2022/03/09 01:24:32;;;;;;;16.08;6.63;;;;;;;2.82;48.18;102078.22;5064178;28;20028;-82
2022/03/09 01:26:57;;;;;;;12.20;6.75;;;;;;;2.78;47.93;102071.22;5064586;28;20504;-82
2022/03/09 01:29:24;;;;;;;11.30;6.72;;;;;;;2.75;48.38;102081.59;5064589;28;20052;-81
2022/03/09 01:31:49;;;;;;;12.60;7.25;;;;;;;2.68;48.79;102067.63;5063790;28;20486;-82
2022/03/09 01:34:14;;;;;;;10.75;7.25;;;;;;;2.75;48.34;102074.69;5064493;28;20035;-82
2022/03/09 01:36:40;;;;;;;13.40;6.90;;;;;;;2.73;48.36;102076.38;5064527;28;20043;-82
2022/03/09 01:39:05;;;;;;;10.77;6.82;;;;;;;2.69;48.54;102074.59;5062983;28;20488;-81
2022/03/09 01:41:30;;;;;;;11.32;6.95;;;;;;;2.65;49.10;102066.69;5062813;28;20031;-82
2022/03/09 01:44:10;;;;;;;10.27;6.35;;;;;;;2.63;48.65;102071.03;5064191;28;20032;-82
2022/03/09 01:46:36;;;;;;;13.02;7.35;;;;;;;2.59;48.96;102064.03;5064262;28;20054;-82
2022/03/09 01:49:03;;;;;;;10.40;6.90;;;;;;;2.58;49.35;102062.28;5063507;28;20047;-82
2022/03/09 01:51:31;;;;;;;12.20;6.70;;;;;;;2.53;49.55;102063.09;5062970;28;20474;-82
2022/03/09 01:53:56;;;;;;;15.48;7.22;;;;;;;2.48;49.50;102064.75;5066264;28;20360;-82
2022/03/09 01:56:21;;;;;;;14.60;6.95;;;;;;;2.40;49.82;102058.56;5062536;28;20027;-82
2022/03/09 01:58:47;;;;;;;13.90;6.43;;;;;;;2.32;49.38;102049.75;5064711;28;20503;-81
2022/03/09 02:01:12;;;;;;;11.35;7.03;;;;;;;2.36;50.44;102059.38;5062895;28;20411;-82
2022/03/09 02:03:37;;;;;;;14.98;7.30;;;;;;;2.30;50.30;102047.13;5061800;28;20103;-82
2022/03/09 02:06:03;;;;;;;12.10;7.00;;;;;;;2.28;50.15;102046.25;5062415;28;20161;-82
2022/03/09 02:11:12;;;;;;;14.50;7.80;;;;;;;2.16;50.13;102040.84;5063292;28;20460;-82
2022/03/09 02:13:38;;;;;;;12.18;7.10;;;;;;;2.19;50.14;102050.44;5064881;28;20056;-82
2022/03/09 02:16:04;;;;;;;15.43;7.55;;;;;;;2.12;50.67;102052.09;5064368;28;20447;-82
2022/03/09 02:18:29;;;;;;;13.60;7.65;;;;;;;2.11;51.06;102059.91;5063203;28;20097;-81
2022/03/09 02:21:00;;;;;;;12.43;6.65;;;;;;;2.13;51.31;102066.00;5062865;28;20016;-81
2022/03/09 02:23:26;;;;;;;12.85;7.13;;;;;;;2.07;51.40;102061.59;5062325;28;20024;-82
2022/03/09 02:25:51;;;;;;;17.25;8.20;;;;;;;2.00;52.25;102052.78;5063463;28;20503;-82
2022/03/09 02:28:17;;;;;;;13.93;7.07;;;;;;;2.01;52.64;102056.31;5064404;28;20547;-82
2022/03/09 02:30:42;;;;;;;13.48;7.28;;;;;;;1.96;52.48;102051.00;5062010;28;20029;-82
2022/03/09 02:33:07;;;;;;;20.23;7.72;;;;;;;1.94;52.67;102051.84;5060769;28;20396;-82
2022/03/09 02:35:33;;;;;;;13.40;7.28;;;;;;;1.86;53.42;102048.22;5063738;28;20103;-82
2022/03/09 02:37:58;;;;;;;14.07;7.80;;;;;;;1.77;53.47;102047.25;5061486;28;20097;-82
2022/03/09 02:40:23;;;;;;;14.10;8.15;;;;;;;1.71;53.75;102052.34;5061627;28;20027;-82
2022/03/09 02:42:49;;;;;;;14.95;7.30;;;;;;;1.65;53.49;102056.59;5061134;28;20400;-82
2022/03/09 02:45:14;;;;;;;18.73;8.02;;;;;;;1.65;53.46;102043.56;5062706;28;20109;-82
2022/03/09 02:47:40;;;;;;;14.75;7.40;;;;;;;1.60;52.55;102034.81;5060976;28;20021;-82
2022/03/09 02:50:06;;;;;;;14.30;7.50;;;;;;;1.64;52.38;102045.31;5062019;28;20391;-82
2022/03/09 02:52:31;;;;;;;15.82;7.55;;;;;;;1.65;52.58;102040.97;5061308;28;20020;-82
2022/03/09 02:54:57;;;;;;;17.08;8.35;;;;;;;1.61;52.23;102029.59;5063904;28;20016;-81
2022/03/09 02:57:22;;;;;;;15.18;7.90;;;;;;;1.62;52.54;102031.34;5063323;28;20074;-82
2022/03/09 02:59:49;;;;;;;17.48;8.52;;;;;;;1.61;52.91;102031.34;5062879;28;20385;-82
2022/03/09 03:02:14;;;;;;;17.48;8.35;;;;;;;1.59;52.37;102027.84;5061219;28;20031;-81
2022/03/09 03:04:40;;;;;;;13.73;7.68;;;;;;;1.58;52.33;102021.72;5061883;28;20020;-82
2022/03/09 03:07:05;;;;;;;16.15;8.57;;;;;;;1.60;52.59;102033.06;5061095;28;20032;-82
2022/03/09 03:09:30;;;;;;;19.23;8.55;;;;;;;1.58;52.44;102026.94;5060812;28;20050;-81
2022/03/09 03:11:55;;;;;;;14.32;7.80;;;;;;;1.56;52.82;102033.88;5061271;28;20393;-81
2022/03/09 03:14:21;;;;;;;16.02;7.68;;;;;;;1.60;53.13;102040.91;5063434;28;20065;-82
2022/03/09 03:16:46;;;;;;;17.42;7.82;;;;;;;1.61;52.93;102042.63;5061526;28;20495;-82
2022/03/09 03:19:11;;;;;;;15.60;7.78;;;;;;;1.56;53.34;102028.66;5062418;28;20032;-82
2022/03/09 03:21:37;;;;;;;14.75;7.38;;;;;;;1.58;53.10;102033.88;5059397;28;20024;-82
2022/03/09 03:24:02;;;;;;;15.55;8.20;;;;;;;1.56;53.23;102033.00;5061456;28;20020;-81
2022/03/09 03:26:28;;;;;;;14.07;7.65;;;;;;;1.55;52.79;102033.88;5061530;28;20068;-81
2022/03/09 03:28:53;;;;;;;17.35;7.97;;;;;;;1.58;53.38;102039.97;5061614;28;20034;-82
2022/03/09 03:31:20;;;;;;;14.68;8.57;;;;;;;1.55;53.23;102033.88;5061119;28;20527;-82
2022/03/09 03:33:47;;;;;;;18.42;9.02;;;;;;;1.53;53.47;102039.91;5061207;28;20024;-81
2022/03/09 03:36:15;;;;;;;13.60;7.97;;;;;;;1.49;53.31;102042.44;5060878;28;20123;-82
2022/03/09 03:38:41;;;;;;;16.13;8.27;;;;;;;1.43;52.73;102035.41;5061692;28;20106;-82
2022/03/09 03:41:06;;;;;;;13.57;7.68;;;;;;;1.50;52.68;102047.69;5061717;28;20637;-82
2022/03/09 03:43:32;;;;;;;15.73;7.20;;;;;;;1.46;52.65;102037.19;5061269;28;20338;-82
2022/03/09 03:45:57;;;;;;;19.05;7.80;;;;;;;1.45;52.65;102038.94;5061194;28;20024;-82
2022/03/09 03:48:22;;;;;;;15.95;8.75;;;;;;;1.42;53.02;102036.25;5061409;28;20032;-81
2022/03/09 03:50:47;;;;;;;14.45;7.60;;;;;;;1.38;53.48;102031.84;5061065;28;20035;-81
2022/03/09 03:53:13;;;;;;;12.52;7.22;;;;;;;1.36;53.53;102035.28;5061322;28;20115;-82
2022/03/09 03:55:38;;;;;;;20.75;8.55;;;;;;;1.39;53.66;102032.72;5061270;28;20059;-82
2022/03/09 03:58:03;;;;;;;13.60;7.65;;;;;;;1.38;53.28;102031.84;5061658;28;20408;-82
2022/03/09 04:00:29;;;;;;;17.95;8.60;;;;;;;1.40;53.24;102040.56;5061080;28;20024;-81
2022/03/09 04:02:54;;;;;;;19.95;7.88;;;;;;;1.42;53.56;102038.84;5060658;28;20544;-82
2022/03/09 04:05:20;;;;;;;13.98;7.85;;;;;;;1.48;53.89;102043.28;5061785;28;20470;-82
2022/03/09 04:07:46;;;;;;;16.90;8.40;;;;;;;1.45;54.21;102043.25;5060528;28;20031;-82
2022/03/09 04:10:12;;;;;;;15.70;8.38;;;;;;;1.38;54.52;102047.47;5062798;28;20039;-82
2022/03/09 04:12:37;;;;;;;16.17;8.18;;;;;;;1.32;54.45;102044.78;5059361;28;20028;-81
2022/03/09 04:15:02;;;;;;;15.38;7.60;;;;;;;1.30;54.17;102042.97;5061961;28;20020;-82
2022/03/09 04:17:28;;;;;;;19.55;7.55;;;;;;;1.28;54.42;102049.03;5061606;28;20601;-81
2022/03/09 04:19:53;;;;;;;18.33;8.60;;;;;;;1.22;54.48;102040.25;5062093;28;20556;-81
2022/03/09 04:22:18;;;;;;;17.58;7.85;;;;;;;1.17;54.18;102039.31;5060100;28;20051;-81
2022/03/09 04:24:44;;;;;;;14.00;7.40;;;;;;;1.23;54.19;102042.00;5059814;28;20029;-82
2022/03/09 04:27:09;;;;;;;10.57;7.25;;;;;;;1.22;54.03;102042.88;5059793;28;20079;-81
2022/03/09 04:29:35;;;;;;;17.58;8.38;;;;;;;1.22;53.89;102043.75;5060941;28;20499;-82
2022/03/09 04:32:00;;;;;;;14.35;7.18;;;;;;;1.18;54.09;102033.25;5059294;28;20024;-82
2022/03/09 04:34:25;;;;;;;12.60;7.30;;;;;;;1.17;53.68;102021.94;5059380;28;20479;-82
2022/03/09 04:36:51;;;;;;;10.57;6.85;;;;;;;1.22;53.65;102037.66;5059069;28;20083;-82
2022/03/09 04:39:16;;;;;;;13.32;7.75;;;;;;;1.18;54.39;102030.63;5062006;28;20021;-81
2022/03/09 04:41:42;;;;;;;14.50;7.50;;;;;;;1.14;53.36;102026.22;5059786;28;20040;-82
2022/03/09 04:44:07;;;;;;;15.68;7.03;;;;;;;1.10;54.11;102029.63;5059548;28;20035;-81
2022/03/09 04:46:32;;;;;;;13.70;7.03;;;;;;;1.10;54.67;102024.41;5060462;28;20081;-81
2022/03/09 04:48:59;;;;;;;18.77;8.82;;;;;;;1.06;54.18;102033.00;5061272;28;20162;-82
2022/03/09 04:51:24;;;;;;;17.33;8.23;;;;;;;1.05;54.56;102039.94;5060733;28;20165;-82
2022/03/09 04:53:49;;;;;;;15.57;7.78;;;;;;;1.05;54.78;102041.69;5061804;28;20115;-81
2022/03/09 04:56:15;;;;;;;13.52;7.40;;;;;;;1.05;54.52;102041.69;5064314;28;20032;-82
2022/03/09 04:58:40;;;;;;;13.35;6.95;;;;;;;1.00;54.98;102045.06;5064067;28;20067;-82
2022/03/09 05:01:05;;;;;;;12.40;6.85;;;;;;;0.99;54.76;102048.53;5062582;28;20373;-82
2022/03/09 05:03:33;;;;;;;12.25;6.65;;;;;;;0.96;54.67;102040.66;5064559;28;20070;-81
2022/03/09 05:05:58;;;;;;;10.70;6.65;;;;;;;0.88;54.55;102021.41;5064265;28;20028;-82
2022/03/09 05:08:23;;;;;;;15.95;7.57;;;;;;;0.82;54.06;102029.09;5064539;28;20064;-82
2022/03/09 05:10:48;;;;;;;17.38;7.70;;;;;;;0.68;54.88;102015.84;5065287;28;20119;-81
2022/03/09 05:13:14;;;;;;;11.82;6.53;;;;;;;0.75;54.71;102037.66;5064219;28;20032;-82
2022/03/09 05:15:40;;;;;;;13.48;6.78;;;;;;;0.72;54.49;102030.66;5065273;28;20032;-81
2022/03/09 05:18:05;;;;;;;14.88;7.88;;;;;;;0.72;54.54;102041.06;5063570;28;20028;-82
2022/03/09 05:20:30;;;;;;;12.75;7.38;;;;;;;0.69;54.87;102038.41;5063752;28;20073;-82
2022/03/09 05:22:56;;;;;;;12.73;6.70;;;;;;;0.66;54.88;102032.28;5065081;28;20082;-81
2022/03/09 05:25:22;;;;;;;14.82;7.75;;;;;;;0.67;55.04;102040.09;5063212;28;20515;-81
2022/03/09 05:27:48;;;;;;;14.93;7.60;;;;;;;0.68;54.64;102031.44;5062745;28;20161;-82
2022/03/09 05:30:13;;;;;;;12.93;7.28;;;;;;;0.71;54.97;102030.66;5064162;28;20040;-81
2022/03/09 05:32:40;;;;;;;13.43;7.38;;;;;;;0.70;54.59;102042.78;5061585;28;20033;-81
2022/03/09 05:35:06;;;;;;;11.02;6.63;;;;;;;0.67;55.12;102041.84;5064610;28;20037;-82
2022/03/09 05:37:37;;;;;;;17.63;7.28;;;;;;;0.68;55.20;102048.78;5063334;28;20033;-82
2022/03/09 05:40:03;;;;;;;16.02;7.05;;;;;;;0.70;55.33;102041.88;5062547;28;20036;-81
2022/03/09 05:42:28;;;;;;;13.70;7.40;;;;;;;0.65;55.04;102039.22;5062447;28;20051;-81
2022/03/09 05:44:53;;;;;;;15.13;8.02;;;;;;;0.64;56.00;102047.84;5063603;28;20024;-82
2022/03/09 05:47:19;;;;;;;13.18;7.43;;;;;;;0.63;55.76;102053.91;5064393;28;20028;-81
2022/03/09 05:49:44;;;;;;;12.65;6.95;;;;;;;0.59;56.13;102059.88;5064550;28;20510;-81
2022/03/09 05:52:09;;;;;;;12.23;6.55;;;;;;;0.59;55.50;102059.00;5062625;28;20282;-82
2022/03/09 05:54:34;;;;;;;16.60;7.30;;;;;;;0.51;55.53;102064.06;5064607;28;20457;-82
2022/03/09 05:57:00;;;;;;;12.93;7.55;;;;;;;0.47;56.02;102062.25;5064584;28;20317;-81
2022/03/09 05:59:25;;;;;;;16.92;7.40;;;;;;;0.43;55.98;102065.63;5062661;28;20520;-81
2022/03/09 06:01:50;;;;;;;13.50;7.13;;;;;;;0.43;55.95;102066.50;5062402;28;20028;-81
2022/03/09 06:04:15;;;;;;;14.43;7.40;;;;;;;0.44;56.26;102060.44;5063054;28;20549;-82
2022/03/09 06:06:41;;;;;;;14.60;7.78;;;;;;;0.48;55.88;102069.22;5060585;28;20025;-82
2022/03/09 06:09:06;;;;;;;17.77;7.97;;;;;;;0.47;55.87;102078.75;5063143;28;20047;-81
2022/03/09 06:11:31;;;;;;;15.55;7.85;;;;;;;0.47;55.56;102077.88;5061895;28;20024;-82
2022/03/09 06:13:57;;;;;;;12.88;7.03;;;;;;;0.47;55.79;102080.47;5063264;28;20112;-82
2022/03/09 06:16:22;;;;;;;13.32;7.13;;;;;;;0.50;55.08;102080.50;5062050;28;20376;-82
2022/03/09 06:18:48;;;;;;;12.88;7.53;;;;;;;0.47;55.97;102078.75;5062519;28;20028;-81
2022/03/09 06:21:14;;;;;;;12.40;6.65;;;;;;;0.46;55.97;102076.97;5062050;28;20086;-82
2022/03/09 06:23:40;;;;;;;13.93;7.00;;;;;;;0.54;55.77;102089.25;5061458;28;20040;-81
2022/03/09 06:26:06;;;;;;;12.10;6.25;;;;;;;0.47;56.07;102075.25;5078464;28;20106;-81
2022/03/09 06:28:31;;;;;;;11.93;6.53;;;;;;;0.54;55.34;102078.84;5061134;28;20056;-82
2022/03/09 06:30:57;;;;;;;15.30;7.25;;;;;;;0.57;55.38;102087.63;5061574;28;20021;-81
2022/03/09 06:33:22;;;;;;;14.27;6.95;;;;;;;0.65;55.00;102091.25;5062589;28;20798;-82
2022/03/09 06:35:47;;;;;;;14.32;7.03;;;;;;;0.70;54.96;102092.22;5063188;28;20153;-81
2022/03/09 06:38:13;;;;;;;15.70;7.47;;;;;;;0.75;54.62;102093.19;5063775;28;20566;-81
2022/03/09 06:40:38;;;;;;;12.00;6.50;;;;;;;0.81;54.26;102094.16;5062799;28;20026;-82
2022/03/09 06:43:04;;;;;;;16.45;7.13;;;;;;;0.85;54.50;102094.25;5062519;28;20488;-81
2022/03/09 06:45:29;;;;;;;14.30;7.13;;;;;;;0.88;54.10;102093.41;5061350;28;20032;-81
2022/03/09 06:47:55;;;;;;;18.60;7.45;;;;;;;0.85;54.53;102094.25;5063064;28;20098;-81
2022/03/09 06:50:20;;;;;;;11.73;6.78;;;;;;;0.94;54.58;102106.59;5061516;28;20028;-81
2022/03/09 06:52:46;;;;;;;15.65;7.00;;;;;;;1.00;55.15;102115.38;5060473;28;20036;-82
2022/03/09 06:55:12;;;;;;;16.85;7.20;;;;;;;1.01;54.29;102114.53;5062941;28;20044;-81
2022/03/09 06:57:38;;;;;;;16.83;7.47;;;;;;;1.10;54.24;102132.06;5060655;28;20024;-81
2022/03/09 07:00:09;;;;;;;15.00;8.02;;;;;;;1.18;54.64;102130.50;5061452;28;20078;-81
2022/03/09 07:02:34;;;;;;;12.38;7.45;;;;;;;1.24;55.15;102128.00;5060140;28;20036;-81
2022/03/09 07:04:59;;;;;;;14.75;7.43;;;;;;;1.27;55.28;102129.78;5062951;28;20488;-81
2022/03/09 07:07:25;;;;;;;17.83;7.70;;;;;;;1.30;53.71;102122.00;5060255;28;20069;-81
2022/03/09 07:09:50;;;;;;;14.60;7.72;;;;;;;1.40;54.75;102125.66;5062099;28;20104;-81
2022/03/09 07:12:15;;;;;;;18.55;7.60;;;;;;;1.48;54.07;102131.88;5062362;28;20028;-81
2022/03/09 07:14:41;;;;;;;15.63;8.13;;;;;;;1.52;53.65;102131.97;5061480;28;20032;-81
2022/03/09 07:17:06;;;;;;;16.48;7.65;;;;;;;1.63;53.02;102141.69;5060240;28;20079;-81
2022/03/09 07:19:31;;;;;;;17.48;8.75;;;;;;;1.74;52.78;102148.00;5059697;28;20024;-81
2022/03/09 07:21:57;;;;;;;15.25;8.20;;;;;;;1.80;52.07;102137.66;5060552;28;20097;-82
2022/03/09 07:24:22;;;;;;;15.57;8.27;;;;;;;1.91;52.36;102137.81;5061270;28;20032;-81
2022/03/09 07:26:47;;;;;;;18.10;8.98;;;;;;;1.97;52.29;102138.81;5061924;28;20131;-81
2022/03/09 07:29:13;;;;;;;20.25;8.57;;;;;;;2.11;51.95;102143.38;5062160;28;20086;-82
2022/03/09 07:31:39;;;;;;;17.75;9.18;;;;;;;2.19;51.80;102134.81;5060293;28;20451;-81
2022/03/09 07:34:04;;;;;;;15.48;7.55;;;;;;;2.29;51.66;102136.72;5063062;28;20035;-82
2022/03/09 07:36:30;;;;;;;15.55;8.05;;;;;;;2.38;51.87;102129.84;5062045;28;20043;-82
2022/03/09 07:38:55;;;;;;;15.02;7.88;;;;;;;2.49;52.08;102129.16;5062324;28;20484;-82
2022/03/09 07:41:21;;;;;;;12.70;7.43;;;;;;;2.64;51.57;102127.59;5059412;28;20027;-82
2022/03/09 07:43:46;;;;;;;12.75;7.90;;;;;;;2.76;51.27;102133.00;5062284;28;20032;-82
2022/03/09 07:46:11;;;;;;;11.18;7.00;;;;;;;2.86;50.15;102140.09;5061712;28;20527;-82
2022/03/09 07:48:37;;;;;;;12.90;6.63;;;;;;;2.91;50.76;102138.41;5060176;28;20031;-82
2022/03/09 07:51:02;;;;;;;17.13;7.40;;;;;;;2.97;50.55;102132.38;5061150;28;20126;-82
2022/03/09 07:53:27;;;;;;;13.85;7.82;;;;;;;3.04;50.50;102142.91;5061417;28;20547;-82
2022/03/09 07:55:53;;;;;;;17.85;6.88;;;;;;;3.14;49.43;102140.41;5060585;28;20381;-82
2022/03/09 07:58:18;;;;;;;13.25;7.38;;;;;;;3.21;50.11;102137.00;5061255;28;20036;-81
2022/03/09 08:00:43;;;;;;;12.98;7.50;;;;;;;3.31;50.13;102137.13;5059242;28;20167;-82
2022/03/09 08:03:09;;;;;;;14.30;7.78;;;;;;;3.42;49.74;102138.97;5058937;28;20024;-81
2022/03/09 08:05:34;;;;;;;14.77;8.35;;;;;;;3.54;49.55;102139.97;5061486;28;20032;-82
2022/03/09 08:07:59;;;;;;;11.32;6.57;;;;;;;3.80;49.17;102129.75;5059526;28;20031;-82
2022/03/09 08:10:25;;;;;;;17.85;8.40;;;;;;;4.11;48.24;102136.97;5061382;28;20066;-82
2022/03/09 08:12:50;;;;;;;14.85;8.07;;;;;;;4.42;48.23;102136.28;5060607;28;20016;-82
2022/03/09 08:15:16;;;;;;;15.75;9.15;;;;;;;4.75;47.02;102147.81;5060110;28;20028;-82
2022/03/09 08:17:41;;;;;;;12.20;7.43;;;;;;;5.00;47.30;102144.44;5059250;28;20628;-83
2022/03/09 08:20:07;;;;;;;13.27;6.88;;;;;;;5.34;45.41;102155.91;5060150;28;20038;-82
2022/03/09 08:22:33;;;;;;;12.38;7.50;;;;;;;5.58;45.52;102157.69;5059450;28;20032;-82
2022/03/09 08:24:58;;;;;;;13.15;7.38;;;;;;;5.78;43.90;102156.84;5061723;28;20388;-82
2022/03/09 08:27:24;;;;;;;11.45;7.45;;;;;;;5.99;44.25;102159.50;5061681;28;20379;-82
2022/03/09 08:29:50;;;;;;;15.77;8.38;;;;;;;6.20;44.19;102161.28;5061154;28;20024;-81
2022/03/09 08:32:19;;;;;;;14.88;7.95;;;;;;;6.64;43.64;102157.69;5064404;28;20046;-81
2022/03/09 08:34:44;;;;;;;14.80;7.15;;;;;;;6.89;43.05;102161.09;5063663;28;20036;-81
2022/03/09 08:37:09;;;;;;;17.38;8.68;;;;;;;7.06;42.62;102164.53;5065422;28;20039;-81
2022/03/09 08:39:35;;;;;;;13.55;7.70;;;;;;;7.47;41.89;102166.09;5064871;28;20032;-82
2022/03/09 08:42:00;;;;;;;14.48;7.57;;;;;;;7.68;39.43;102165.91;5063314;28;20429;-82
2022/03/09 08:44:25;;;;;;;11.32;7.60;;;;;;;7.95;39.81;102163.09;5064122;28;20073;-82
2022/03/09 08:46:53;;;;;;;10.98;6.85;;;;;;;8.43;38.47;102157.41;5063527;28;20388;-82
2022/03/09 08:49:18;;;;;;;13.90;8.05;;;;;;;9.01;37.69;102166.44;5062912;28;20164;-83
2022/03/09 08:51:44;;;;;;;13.95;7.60;;;;;;;8.97;37.60;102163.88;5064174;28;20024;-83
2022/03/09 08:54:09;;;;;;;13.82;8.35;;;;;;;9.60;37.11;102164.75;5063231;28;20443;-83
2022/03/09 08:56:34;;;;;;;13.07;7.85;;;;;;;9.89;36.82;102163.44;5064703;28;20028;-83
2022/03/09 08:59:00;;;;;;;16.60;8.55;;;;;;;10.43;36.78;102163.41;5062705;28;20492;-83
2022/03/09 09:01:25;;;;;;;10.48;6.72;;;;;;;10.98;36.16;102160.56;5063208;28;20144;-83
2022/03/09 09:03:51;;;;;;;14.52;8.75;;;;;;;11.26;34.15;102164.41;5064449;28;20476;-83
2022/03/09 09:06:16;;;;;;;13.65;8.27;;;;;;;11.94;33.03;102173.44;5062653;28;20713;-84
2022/03/09 09:08:41;;;;;;;17.20;8.55;;;;;;;12.34;32.23;102159.16;5065350;28;20047;-84
2022/03/09 09:11:07;;;;;;;14.57;8.25;;;;;;;12.79;30.29;102166.78;5063021;28;20047;-85
2022/03/09 09:13:32;;;;;;;16.58;8.68;;;;;;;12.77;30.64;102158.84;5061775;28;20143;-84
2022/03/09 09:15:58;;;;;;;14.05;8.32;;;;;;;12.64;32.67;102152.16;5062144;28;20028;-83
2022/03/09 09:18:24;;;;;;;14.60;8.68;;;;;;;12.94;30.83;102155.72;5064834;28;20040;-83
2022/03/09 09:20:49;;;;;;;16.40;8.43;;;;;;;13.53;30.67;102147.78;5064578;28;20055;-84
2022/03/09 09:23:16;;;;;;;15.82;8.88;;;;;;;13.63;29.96;102158.13;5061532;28;20114;-83
2022/03/09 09:25:41;;;;;;;16.08;10.20;;;;;;;13.73;28.43;102148.94;5063060;28;20053;-83
2022/03/09 09:28:07;;;;;;;16.67;9.35;;;;;;;14.52;30.09;102154.22;5064339;28;20025;-83
2022/03/09 09:30:32;;;;;;;18.27;9.18;;;;;;;15.42;27.41;102151.75;5064677;28;20042;-83
2022/03/09 09:32:59;;;;;;;14.38;8.75;;;;;;;16.36;26.81;102148.78;5061484;28;20044;-84
2022/03/09 09:35:24;;;;;;;14.75;8.13;;;;;;;17.06;25.14;102150.97;5063190;28;20534;-83
2022/03/09 09:37:50;;;;;;;16.33;9.80;;;;;;;17.42;25.47;102155.53;5064220;28;20032;-83
2022/03/09 09:40:15;;;;;;;16.63;9.52;;;;;;;18.41;23.78;102147.03;5063826;28;20036;-84
2022/03/09 09:42:42;;;;;;;16.60;10.45;;;;;;;18.30;23.30;102151.16;5061961;28;20024;-84
2022/03/09 09:45:08;;;;;;;19.55;10.45;;;;;;;18.29;23.99;102153.91;5063818;28;20429;-83
2022/03/09 09:47:34;;;;;;;20.75;11.50;;;;;;;18.21;22.69;102150.75;5062688;28;20182;-83
2022/03/09 09:49:59;;;;;;;19.92;12.00;;;;;;;18.40;22.17;102150.66;5063597;28;20545;-84
2022/03/09 09:52:26;;;;;;;20.80;11.93;;;;;;;19.12;23.44;102155.75;5062030;28;20625;-84
2022/03/09 09:54:54;;;;;;;23.35;12.32;;;;;;;19.09;22.46;102153.25;5065075;28;20605;-83
2022/03/09 09:57:20;;;;;;;20.00;11.20;;;;;;;19.40;22.54;102154.19;5063750;28;20033;-83
2022/03/09 09:59:45;;;;;;;21.80;12.07;;;;;;;19.04;22.25;102156.16;5061869;28;20507;-84
2022/03/09 10:02:12;;;;;;;20.17;11.48;;;;;;;20.05;22.54;102141.50;5064196;28;20020;-84
2022/03/09 10:04:39;;;;;;;24.98;11.23;;;;;;;20.48;20.69;102149.72;5063286;28;20755;-84
2022/03/09 10:07:04;;;;;;;17.73;11.07;;;;;;;21.19;20.68;102149.72;5063975;28;20027;-84
2022/03/09 10:09:38;;;;;;;14.45;9.98;;;;;;;20.57;19.80;102151.84;5061256;28;20391;-84
2022/03/09 10:12:06;;;;;;;14.50;10.40;;;;;;;20.05;20.77;102144.19;5061656;28;20039;-83
2022/03/09 10:14:50;;;;;;;16.13;10.18;;;;;;;20.74;22.07;102150.78;5062204;28;20278;-84
2022/03/09 10:17:19;;;;;;;18.75;12.32;;;;;;;20.71;20.56;102145.63;5060579;28;20033;-84
2022/03/09 10:19:50;;;;;;;20.42;10.80;;;;;;;20.35;19.82;102141.50;5061291;28;20040;-84
2022/03/09 10:22:31;;;;;;;21.67;12.23;;;;;;;20.42;20.47;102142.84;5062350;28;20036;-84
2022/03/09 10:25:00;;;;;;;18.83;10.95;;;;;;;21.43;20.88;102139.22;5060054;28;20039;-84
2022/03/09 10:27:43;;;;;;;18.63;10.93;;;;;;;21.77;19.26;102145.06;5062088;28;20496;-84
2022/03/09 10:30:11;;;;;;;19.20;10.38;;;;;;;21.43;19.28;102141.91;5063238;28;20024;-84
2022/03/09 10:32:56;;;;;;;19.35;11.38;;;;;;;22.09;20.63;102134.81;5062376;28;20035;-84
2022/03/09 10:35:30;;;;;;;18.90;11.15;;;;;;;23.33;18.83;102135.03;5062577;28;20483;-84
2022/03/09 10:38:02;;;;;;;19.00;11.13;;;;;;;23.36;17.14;102136.63;5061529;28;20016;-82
2022/03/09 10:40:30;;;;;;;20.10;11.27;;;;;;;22.89;18.24;102128.31;5061470;28;20059;-82
2022/03/09 10:43:11;;;;;;;17.95;12.13;;;;;;;23.28;20.20;102134.53;5061062;28;20488;-82
2022/03/09 10:45:36;;;;;;;18.00;10.77;;;;;;;24.04;17.71;102127.94;5061219;28;20020;-83
2022/03/09 10:48:04;;;;;;;20.73;11.85;;;;;;;24.13;16.61;102129.94;5060602;28;20017;-83
2022/03/09 10:50:30;;;;;;;19.20;12.73;;;;;;;23.56;17.92;102124.38;5060750;28;20117;-83
2022/03/09 10:52:57;;;;;;;19.17;13.07;;;;;;;24.30;18.13;102122.38;5062551;28;20020;-84
2022/03/09 10:55:33;;;;;;;19.25;12.63;;;;;;;24.77;16.87;102118.66;5061479;28;20028;-84
2022/03/09 10:58:14;;;;;;;20.85;12.15;;;;;;;23.84;17.81;102139.41;5061758;28;20545;-83
2022/03/09 11:00:51;;;;;;;22.15;12.70;;;;;;;22.86;18.73;102128.53;5059606;28;20063;-84
2022/03/09 11:03:22;;;;;;;20.05;13.18;;;;;;;22.31;18.95;102134.25;5054130;28;20028;-84
2022/03/09 11:05:59;;;;;;;22.83;14.43;;;;;;;21.41;20.09;102138.47;5061846;28;20039;-84
2022/03/09 11:08:30;;;;;;;22.17;13.05;;;;;;;21.73;19.50;102136.34;5060130;28;20119;-85
2022/03/09 11:10:59;;;;;;;23.75;13.80;;;;;;;22.15;19.92;102126.38;5063745;28;20506;-85
2022/03/09 11:13:27;;;;;;;22.42;14.75;;;;;;;22.60;18.75;102132.22;5062239;28;20036;-84
2022/03/09 11:15:54;;;;;;;25.23;15.05;;;;;;;22.50;18.69;102131.13;5059905;28;20119;-84
2022/03/09 11:18:21;;;;;;;26.80;15.93;;;;;;;21.75;19.77;102129.03;5062893;28;20024;-84
2022/03/09 11:20:48;;;;;;;28.02;15.00;;;;;;;20.80;19.74;102135.16;5060437;28;20032;-84